Time;durP1;ratioP1;P1;durP2;ratioP2;P2;SDS_P1;SDS_P2;PMS_P1;PMS_P2;Temp;Humidity;BMP_temperature;BMP_pressure;BME280_temperature;BME280_humidity;BME280_pressure;Samples;Min_cycle;Max_cycle;Signal;HPM_P1;HPM_P2
2020/12/03 00:01:34;;;;;;;17.83;2.90;;;;;;;6.87;73.34;99757.19;5086632;23;20545;-87
2020/12/03 00:04:04;;;;;;;18.08;6.03;;;;;;;6.77;73.88;99763.91;5008942;28;20021;-88
2020/12/03 00:06:32;;;;;;;25.27;8.30;;;;;;;6.62;74.76;99766.56;5010517;28;20128;-87
2020/12/03 00:09:03;;;;;;;13.05;4.88;;;;;;;6.69;74.06;99767.81;5026635;28;20471;-87
2020/12/03 00:11:35;;;;;;;17.48;4.82;;;;;;;6.77;73.60;99749.09;5029485;28;20033;-87
2020/12/03 00:14:00;;;;;;;12.07;3.20;;;;;;;6.87;73.98;99746.75;5031240;28;20117;-87
2020/12/03 00:16:33;;;;;;;14.70;3.42;;;;;;;6.95;73.39;99741.88;5031081;28;20117;-87
2020/12/03 00:19:00;;;;;;;8.35;3.72;;;;;;;6.90;73.47;99731.72;5031900;28;20375;-87
2020/12/03 00:21:58;;;;;;;12.35;3.33;;;;;;;6.94;73.17;99729.78;5029644;28;20025;-88
2020/12/03 00:24:27;;;;;;;10.27;3.67;;;;;;;7.02;73.81;99711.84;5031676;28;20025;-87
2020/12/03 00:26:52;;;;;;;12.82;2.92;;;;;;;7.04;73.49;99707.34;5031552;28;20018;-88
2020/12/03 00:29:19;;;;;;;10.40;3.78;;;;;;;7.06;73.69;99684.59;5032684;28;20027;-87
2020/12/03 00:31:47;;;;;;;22.30;3.88;;;;;;;7.09;73.43;99699.22;5034773;28;20025;-87
2020/12/03 00:34:13;;;;;;;17.70;4.32;;;;;;;7.02;74.09;99685.75;5034877;28;20112;-89
2020/12/03 00:36:39;;;;;;;12.43;3.42;;;;;;;7.07;73.81;99678.47;5016910;28;20437;-89
2020/12/03 00:39:07;;;;;;;14.95;3.25;;;;;;;7.00;73.91;99677.16;5035141;28;20100;-89
2020/12/03 00:41:33;;;;;;;17.13;4.43;;;;;;;6.97;73.41;99648.69;5017219;28;20029;-90
2020/12/03 00:43:58;;;;;;;15.90;4.35;;;;;;;7.05;73.70;99651.63;5035192;28;20024;-88
2020/12/03 00:46:28;;;;;;;10.55;3.17;;;;;;;7.08;74.13;99647.97;5017400;28;20494;-89
2020/12/03 00:48:54;;;;;;;14.60;3.50;;;;;;;7.04;74.13;99631.66;5035102;28;20586;-89
2020/12/03 00:51:20;;;;;;;14.05;3.72;;;;;;;7.05;74.17;99638.56;5033056;28;20041;-89
2020/12/03 00:53:45;;;;;;;16.15;3.97;;;;;;;7.01;74.91;99621.44;5034407;28;20037;-88
2020/12/03 00:56:10;;;;;;;16.05;3.83;;;;;;;6.85;74.88;99605.09;5035125;28;20223;-89
2020/12/03 00:58:36;;;;;;;14.73;3.80;;;;;;;7.01;74.08;99604.91;5035093;28;20027;-88
2020/12/03 01:01:01;;;;;;;11.02;2.65;;;;;;;7.05;74.75;99602.03;5035482;28;20565;-88
2020/12/03 01:03:27;;;;;;;12.15;3.13;;;;;;;7.11;74.53;99604.22;5034564;28;20036;-89
2020/12/03 01:05:52;;;;;;;12.70;3.45;;;;;;;7.06;75.89;99602.84;5034272;28;20029;-89
2020/12/03 01:08:18;;;;;;;16.02;2.90;;;;;;;6.98;75.54;99586.88;5034581;28;20104;-88
2020/12/03 01:10:43;;;;;;;11.52;2.65;;;;;;;7.07;75.60;99594.94;5034400;28;20029;-88
2020/12/03 01:13:09;;;;;;;7.43;2.33;;;;;;;7.05;75.61;99565.47;5034411;28;20057;-88
2020/12/03 01:15:34;;;;;;;15.93;4.25;;;;;;;6.95;76.70;99564.41;5034641;28;20094;-88
2020/12/03 01:17:59;;;;;;;9.10;2.65;;;;;;;7.09;76.21;99553.91;5034294;28;20505;-89
2020/12/03 01:20:28;;;;;;;10.80;2.72;;;;;;;7.12;75.60;99558.06;5034190;28;20025;-89
2020/12/03 01:22:53;;;;;;;19.33;3.25;;;;;;;7.17;75.96;99539.47;5034570;28;20033;-89
2020/12/03 01:25:22;;;;;;;9.50;2.13;;;;;;;7.18;75.14;99535.94;5035350;28;20037;-89
2020/12/03 01:27:47;;;;;;;12.68;2.72;;;;;;;7.08;75.99;99531.31;5044499;28;20029;-89
2020/12/03 01:30:14;;;;;;;11.35;2.35;;;;;;;7.12;76.03;99524.97;5048280;28;20040;-89
2020/12/03 01:32:40;;;;;;;11.45;2.65;;;;;;;7.11;75.34;99504.19;5033966;28;20029;-89
2020/12/03 01:35:07;;;;;;;14.00;3.90;;;;;;;7.22;75.69;99503.47;5033650;28;20437;-88
2020/12/03 01:37:32;;;;;;;11.75;3.10;;;;;;;7.14;75.56;99494.34;5033801;28;20022;-89
2020/12/03 01:39:58;;;;;;;13.20;3.05;;;;;;;7.07;75.60;99482.69;5033703;28;20506;-88
2020/12/03 01:42:23;;;;;;;9.02;3.10;;;;;;;7.00;76.41;99477.97;5033773;28;20038;-88
2020/12/03 01:44:54;;;;;;;20.40;3.88;;;;;;;7.00;76.31;99478.81;5033731;28;20471;-88
2020/12/03 01:47:38;;;;;;;13.30;3.63;;;;;;;6.99;76.41;99477.16;5033674;28;20029;-88
2020/12/03 01:50:07;;;;;;;12.18;4.47;;;;;;;6.95;76.74;99470.44;5033525;28;20502;-89
2020/12/03 01:52:34;;;;;;;7.32;2.65;;;;;;;7.02;76.30;99471.72;5033612;28;20099;-89
2020/12/03 01:54:59;;;;;;;10.82;3.10;;;;;;;6.89;75.87;99450.00;5033432;28;20080;-89
2020/12/03 01:57:53;;;;;;;7.18;2.60;;;;;;;7.06;76.28;99457.50;5033616;28;20111;-88
2020/12/03 02:00:20;;;;;;;10.32;2.50;;;;;;;6.96;75.51;99453.88;5034190;28;20044;-86
2020/12/03 02:02:48;;;;;;;11.65;2.63;;;;;;;7.08;74.98;99439.97;5033474;28;20025;-88
2020/12/03 02:05:26;;;;;;;16.30;3.28;;;;;;;7.03;75.51;99447.28;5033097;28;20030;-88
2020/12/03 02:07:52;;;;;;;13.00;3.97;;;;;;;7.10;75.31;99440.69;5033266;28;20087;-88
2020/12/03 02:10:19;;;;;;;9.63;2.28;;;;;;;7.11;74.63;99437.16;5033128;28;20021;-88
2020/12/03 02:12:45;;;;;;;13.70;3.15;;;;;;;7.19;73.75;99430.56;5033223;28;20026;-88
2020/12/03 02:15:11;;;;;;;9.73;2.80;;;;;;;7.19;73.58;99431.41;5033284;28;20022;-88
2020/12/03 02:17:38;;;;;;;8.98;2.25;;;;;;;7.06;74.61;99422.75;5033024;28;20467;-88
2020/12/03 02:20:07;;;;;;;10.00;2.17;;;;;;;7.13;73.79;99416.19;5032681;28;20493;-88
2020/12/03 02:22:32;;;;;;;9.25;2.08;;;;;;;7.06;74.44;99414.91;5032686;28;20113;-88
2020/12/03 02:24:58;;;;;;;16.17;2.58;;;;;;;7.02;74.30;99397.81;5033075;28;20445;-88
2020/12/03 02:27:24;;;;;;;16.73;2.53;;;;;;;7.03;74.18;99389.88;5032923;28;20021;-88
2020/12/03 02:29:50;;;;;;;5.85;1.80;;;;;;;7.09;74.02;99379.00;5032956;28;20064;-88
2020/12/03 02:32:16;;;;;;;9.30;2.60;;;;;;;7.04;74.05;99370.66;5032869;28;20053;-88
2020/12/03 02:34:42;;;;;;;12.57;3.17;;;;;;;7.01;73.98;99352.59;5032547;28;20112;-87
2020/12/03 02:37:08;;;;;;;12.27;2.15;;;;;;;7.12;74.04;99352.66;5033069;28;20116;-88
2020/12/03 02:39:34;;;;;;;12.65;3.35;;;;;;;7.03;74.00;99336.81;5033627;28;20109;-87
2020/12/03 02:42:02;;;;;;;10.95;2.40;;;;;;;7.08;73.82;99339.94;5036018;28;20037;-87
2020/12/03 02:44:27;;;;;;;11.70;2.25;;;;;;;7.01;73.81;99329.13;5058113;28;20021;-87
2020/12/03 02:46:53;;;;;;;9.30;1.92;;;;;;;7.04;74.13;99323.66;5057701;28;20034;-86
2020/12/03 02:49:19;;;;;;;13.98;2.08;;;;;;;6.98;74.36;99305.00;5037832;28;20522;-88
2020/12/03 02:51:44;;;;;;;6.82;1.58;;;;;;;6.99;74.64;99301.44;5032512;28;20025;-88
2020/12/03 02:54:11;;;;;;;5.55;2.03;;;;;;;6.92;74.86;99294.03;5032801;28;20029;-88
2020/12/03 02:56:37;;;;;;;14.45;2.28;;;;;;;6.90;74.53;99289.88;5032437;28;20033;-87
2020/12/03 02:59:05;;;;;;;8.45;1.98;;;;;;;7.00;74.24;99285.69;5032409;28;20036;-87
2020/12/03 03:01:30;;;;;;;8.90;1.95;;;;;;;7.02;73.62;99270.75;5032863;28;20499;-87
2020/12/03 03:03:56;;;;;;;12.48;2.38;;;;;;;7.09;73.63;99269.38;5032080;28;20033;-87
2020/12/03 03:06:22;;;;;;;7.35;2.05;;;;;;;6.87;73.61;99258.78;5032125;28;20026;-87
2020/12/03 03:08:47;;;;;;;11.65;2.60;;;;;;;6.91;73.92;99245.41;5032177;28;20112;-86
2020/12/03 03:11:13;;;;;;;10.68;2.10;;;;;;;6.93;73.67;99248.75;5032419;28;20041;-88
2020/12/03 03:13:38;;;;;;;16.70;2.67;;;;;;;6.99;74.08;99234.44;5032264;28;20500;-87
2020/12/03 03:16:04;;;;;;;11.02;2.80;;;;;;;6.84;74.85;99218.09;5035473;28;20450;-87
2020/12/03 03:18:29;;;;;;;10.32;2.10;;;;;;;6.91;74.93;99221.09;5031628;28;20029;-88
2020/12/03 03:20:54;;;;;;;8.50;2.05;;;;;;;7.01;74.64;99209.06;5031836;28;20025;-87
2020/12/03 03:23:20;;;;;;;6.30;1.67;;;;;;;7.06;74.24;99201.72;5031938;28;20037;-88
2020/12/03 03:25:45;;;;;;;8.77;1.50;;;;;;;6.92;74.36;99183.63;5031916;28;20173;-88
2020/12/03 03:28:12;;;;;;;11.52;2.22;;;;;;;6.94;75.30;99179.94;5032338;28;20040;-87
2020/12/03 03:30:37;;;;;;;16.45;2.90;;;;;;;6.97;74.52;99165.88;5031957;28;20029;-88
2020/12/03 03:33:04;;;;;;;11.45;2.25;;;;;;;7.06;74.53;99159.94;5031610;28;20029;-87
2020/12/03 03:35:30;;;;;;;11.90;2.22;;;;;;;7.12;73.87;99156.88;5031952;28;20029;-87
2020/12/03 03:37:56;;;;;;;7.65;2.33;;;;;;;7.13;75.05;99150.75;5031850;28;20033;-88
2020/12/03 03:40:21;;;;;;;11.70;2.05;;;;;;;7.08;74.71;99142.41;5014127;28;20036;-88
2020/12/03 03:42:46;;;;;;;9.15;1.83;;;;;;;7.13;74.93;99127.25;5031903;28;20172;-88
2020/12/03 03:45:12;;;;;;;8.43;1.83;;;;;;;7.12;74.80;99116.91;5032155;28;20025;-88
2020/12/03 03:47:39;;;;;;;8.15;2.13;;;;;;;6.99;75.45;99111.78;5031491;28;20506;-87
2020/12/03 03:50:06;;;;;;;11.48;1.95;;;;;;;7.11;74.92;99118.69;5031428;28;20021;-88
2020/12/03 03:52:31;;;;;;;8.02;1.60;;;;;;;7.10;75.17;99096.13;5031745;28;20077;-88
2020/12/03 03:54:57;;;;;;;12.13;2.30;;;;;;;7.18;75.26;99095.56;5014191;28;20502;-88
2020/12/03 03:57:23;;;;;;;14.63;2.65;;;;;;;7.18;75.46;99092.13;5034685;28;20029;-87
2020/12/03 03:59:49;;;;;;;8.25;1.80;;;;;;;7.27;75.04;99087.06;5036420;28;20033;-87
2020/12/03 04:02:21;;;;;;;13.13;3.90;;;;;;;7.44;74.95;99071.88;5031314;28;20062;-88
2020/12/03 04:04:47;;;;;;;11.60;2.13;;;;;;;7.40;75.14;99065.22;5034579;28;20378;-88
2020/12/03 04:07:13;;;;;;;14.98;2.70;;;;;;;7.33;75.18;99051.81;5035493;28;20030;-87
2020/12/03 04:09:39;;;;;;;14.80;2.20;;;;;;;7.37;75.81;99053.25;5035476;28;20029;-87
2020/12/03 04:12:05;;;;;;;7.20;1.50;;;;;;;7.51;75.19;99039.97;5035365;28;20491;-87
2020/12/03 04:14:31;;;;;;;8.57;1.65;;;;;;;7.50;75.58;99032.22;5035490;28;20022;-87
2020/12/03 04:16:56;;;;;;;8.25;1.77;;;;;;;7.53;75.44;99021.56;5035169;28;20025;-87
2020/12/03 04:19:21;;;;;;;16.30;1.98;;;;;;;7.50;75.13;99006.97;5035317;28;20100;-87
2020/12/03 04:21:47;;;;;;;9.48;2.38;;;;;;;7.43;75.70;98984.88;5035320;28;20021;-86
2020/12/03 04:24:12;;;;;;;9.63;1.92;;;;;;;7.42;75.49;98988.44;5035111;28;20026;-87
2020/12/03 04:26:38;;;;;;;10.75;2.67;;;;;;;7.46;75.39;98983.81;5035214;28;20029;-87
2020/12/03 04:29:03;;;;;;;17.20;2.30;;;;;;;7.37;75.51;98969.69;5035249;28;20017;-86
2020/12/03 04:31:29;;;;;;;14.50;3.17;;;;;;;7.41;75.74;98967.69;5034994;28;20029;-86
2020/12/03 04:33:54;;;;;;;15.00;2.22;;;;;;;7.49;75.85;98960.91;5035013;28;20422;-86
2020/12/03 04:36:19;;;;;;;9.07;2.13;;;;;;;7.35;76.38;98954.13;5035017;28;20037;-86
2020/12/03 04:38:45;;;;;;;14.65;2.45;;;;;;;7.37;76.10;98937.53;5035074;28;20017;-86
2020/12/03 04:41:11;;;;;;;9.90;2.33;;;;;;;7.54;75.89;98947.47;5035006;28;20029;-85
2020/12/03 04:43:46;;;;;;;17.52;2.42;;;;;;;7.42;76.37;98930.97;5034947;28;20029;-86
2020/12/03 04:46:23;;;;;;;13.50;2.78;;;;;;;7.40;76.95;98930.25;5034547;28;20026;-85
2020/12/03 04:49:05;;;;;;;11.75;1.85;;;;;;;7.42;76.54;98923.16;5034919;28;20037;-85
2020/12/03 04:51:56;;;;;;;6.47;1.55;;;;;;;7.32;76.93;98903.94;5034722;28;20491;-85
2020/12/03 04:54:24;;;;;;;9.68;1.90;;;;;;;7.45;76.27;98898.59;5034702;28;20390;-85
2020/12/03 04:57:19;;;;;;;11.45;1.88;;;;;;;7.47;75.47;98889.66;5034675;28;20037;-85
2020/12/03 05:00:03;;;;;;;16.10;2.45;;;;;;;7.44;76.41;98876.03;5035074;28;20032;-86
2020/12/03 05:02:58;;;;;;;8.90;1.88;;;;;;;7.55;76.38;98863.78;5034146;28;20116;-85
2020/12/03 05:05:44;;;;;;;9.10;1.60;;;;;;;7.46;76.47;98853.22;5021585;28;20514;-85
2020/12/03 05:08:18;;;;;;;10.82;1.95;;;;;;;7.52;75.88;98850.97;5034482;28;20095;-85
2020/12/03 05:10:45;;;;;;;9.95;1.70;;;;;;;7.52;76.38;98839.66;5034573;28;20026;-85
2020/12/03 05:13:25;;;;;;;13.07;2.40;;;;;;;7.41;77.37;98824.88;5034404;28;20037;-85
2020/12/03 05:15:56;;;;;;;12.45;1.80;;;;;;;7.32;76.94;98807.31;5033721;28;20067;-85
2020/12/03 05:18:43;;;;;;;13.52;1.92;;;;;;;7.47;76.91;98806.09;5034306;28;20052;-85
2020/12/03 05:21:16;;;;;;;11.23;1.75;;;;;;;7.50;77.11;98782.38;5034192;28;20048;-85
2020/12/03 05:23:41;;;;;;;7.03;1.70;;;;;;;7.53;77.08;98779.47;5034115;28;20025;-85
2020/12/03 05:26:22;;;;;;;6.15;1.52;;;;;;;7.58;76.83;98767.84;5034003;28;20036;-85
2020/12/03 05:28:52;;;;;;;10.27;1.80;;;;;;;7.52;77.16;98770.00;5034269;28;20476;-85
2020/12/03 05:31:21;;;;;;;9.63;1.95;;;;;;;7.44;77.96;98756.72;5033928;28;20029;-85
2020/12/03 05:33:46;;;;;;;9.63;1.65;;;;;;;7.47;77.81;98738.22;5033995;28;20030;-85
2020/12/03 05:36:34;;;;;;;13.27;1.70;;;;;;;7.47;76.93;98730.38;5033926;28;20026;-85
2020/12/03 05:39:03;;;;;;;12.65;1.88;;;;;;;7.48;78.05;98725.97;5034045;28;20030;-85
2020/12/03 05:41:33;;;;;;;18.80;4.32;;;;;;;7.39;77.48;98717.13;5033869;28;20029;-86
2020/12/03 05:43:59;;;;;;;6.80;1.40;;;;;;;7.49;78.02;98711.97;5033821;28;20045;-85
2020/12/03 05:46:25;;;;;;;7.40;1.63;;;;;;;7.48;78.15;98710.31;5033448;28;20057;-85
2020/12/03 05:49:03;;;;;;;8.05;2.05;;;;;;;7.53;77.37;98708.16;5033648;28;20033;-85
2020/12/03 05:51:33;;;;;;;10.48;2.65;;;;;;;7.71;76.58;98708.41;5034075;28;20053;-86
2020/12/03 05:54:06;;;;;;;9.70;1.90;;;;;;;7.73;76.53;98672.53;5033578;28;20065;-85
2020/12/03 05:56:31;;;;;;;12.07;1.70;;;;;;;7.71;76.46;98674.44;5033518;28;20029;-85
2020/12/03 05:59:21;;;;;;;8.30;1.67;;;;;;;7.71;77.27;98658.78;5033584;28;20026;-85
2020/12/03 06:02:15;;;;;;;9.05;2.17;;;;;;;7.68;77.08;98644.19;5033404;28;20506;-85
2020/12/03 06:04:46;;;;;;;9.60;1.70;;;;;;;7.74;75.96;98627.16;5033267;28;20036;-85
2020/12/03 06:07:50;;;;;;;7.93;1.27;;;;;;;7.81;76.23;98630.09;5033337;28;20029;-85
2020/12/03 06:10:50;;;;;;;12.18;1.80;;;;;;;7.51;77.79;98613.44;4993916;28;20041;-85
2020/12/03 06:13:34;;;;;;;9.48;1.50;;;;;;;7.65;76.95;98617.50;5013391;28;20895;-85
2020/12/03 06:16:13;;;;;;;10.70;1.67;;;;;;;7.68;76.99;98602.41;5026465;28;20033;-84
2020/12/03 06:19:03;;;;;;;9.25;1.40;;;;;;;7.57;77.22;98602.47;5033167;28;20033;-85
2020/12/03 06:21:58;;;;;;;3.40;1.02;;;;;;;7.62;77.37;98599.44;5033229;28;20029;-86
2020/12/03 06:24:59;;;;;;;10.13;1.75;;;;;;;7.46;77.34;98572.00;5033233;28;20034;-85
2020/12/03 06:27:45;;;;;;;7.93;2.03;;;;;;;7.59;76.93;98555.34;5032459;28;20120;-85
2020/12/03 06:30:56;;;;;;;10.95;1.85;;;;;;;7.65;76.55;98539.13;5033006;28;20491;-86
2020/12/03 06:33:42;;;;;;;6.25;1.25;;;;;;;7.70;77.26;98536.94;5033031;28;20029;-85
2020/12/03 06:36:14;;;;;;;10.10;1.20;;;;;;;7.72;76.07;98525.41;5015808;28;20029;-85
2020/12/03 06:38:39;;;;;;;4.15;1.00;;;;;;;7.69;77.02;98522.22;5019548;28;20041;-85
2020/12/03 06:41:20;;;;;;;9.00;1.77;;;;;;;7.53;76.25;98510.47;5053816;28;20036;-84
2020/12/03 06:43:53;;;;;;;6.78;1.08;;;;;;;7.70;77.27;98506.44;5052739;28;20038;-85
2020/12/03 06:46:34;;;;;;;8.05;1.00;;;;;;;7.70;76.13;98505.59;5031949;28;20066;-85
2020/12/03 06:49:05;;;;;;;7.07;1.35;;;;;;;7.65;77.06;98492.13;5032525;28;20446;-85
2020/12/03 06:51:51;;;;;;;4.97;1.23;;;;;;;7.73;76.94;98474.00;5032551;28;20100;-85
2020/12/03 06:54:46;;;;;;;5.50;1.25;;;;;;;7.49;77.67;98462.09;5032439;28;20080;-85
2020/12/03 06:57:35;;;;;;;5.10;1.08;;;;;;;7.52;77.59;98461.84;5006323;28;20565;-85
2020/12/03 07:00:08;;;;;;;9.65;1.67;;;;;;;7.66;76.23;98438.91;5032498;28;20034;-85
2020/12/03 07:02:45;;;;;;;6.22;1.20;;;;;;;7.56;77.75;98444.09;5014494;28;20376;-85
2020/12/03 07:05:39;;;;;;;5.25;1.17;;;;;;;7.69;76.01;98422.97;5032227;28;20478;-82
2020/12/03 07:09:00;;;;;;;6.35;1.23;;;;;;;7.69;77.04;98409.91;5004716;28;20117;-83
2020/12/03 07:11:59;;;;;;;4.75;1.10;;;;;;;7.71;76.78;98411.41;4964509;28;20037;-86
2020/12/03 07:14:54;;;;;;;5.20;1.40;;;;;;;7.73;76.62;98399.03;5027732;28;20122;-86
2020/12/03 07:17:52;;;;;;;5.18;1.00;;;;;;;7.83;76.88;98400.84;5031960;28;20071;-86
2020/12/03 07:20:49;;;;;;;5.07;1.05;;;;;;;7.76;76.42;98384.91;5032006;28;20525;-86
2020/12/03 07:23:43;;;;;;;7.30;1.67;;;;;;;7.72;76.93;98391.34;5031962;28;20033;-86
2020/12/03 07:26:34;;;;;;;4.85;1.08;;;;;;;7.80;76.13;98391.50;5021000;28;20034;-86
2020/12/03 07:29:01;;;;;;;6.65;1.20;;;;;;;7.75;76.39;98373.63;5031615;28;20026;-86
2020/12/03 07:31:37;;;;;;;8.65;1.30;;;;;;;7.80;76.63;98360.16;5031761;28;20113;-86
2020/12/03 07:34:27;;;;;;;5.03;1.30;;;;;;;7.64;77.63;98354.63;5031407;28;20457;-86
2020/12/03 07:37:07;;;;;;;5.10;1.10;;;;;;;7.66;77.67;98343.09;5031213;28;20180;-86
2020/12/03 07:39:35;;;;;;;5.82;1.02;;;;;;;7.66;77.32;98343.09;5031631;28;20075;-85
2020/12/03 07:42:16;;;;;;;5.78;1.00;;;;;;;7.77;77.08;98344.75;5032588;28;20018;-86
2020/12/03 07:44:50;;;;;;;6.28;1.38;;;;;;;7.61;77.01;98329.63;5031970;28;20530;-86
2020/12/03 07:47:31;;;;;;;5.97;1.20;;;;;;;7.75;77.04;98325.78;5024681;28;20036;-86
2020/12/03 07:49:58;;;;;;;4.45;0.80;;;;;;;7.77;77.06;98321.22;5031385;28;20301;-86
2020/12/03 07:52:30;;;;;;;6.10;1.17;;;;;;;7.72;77.45;98318.19;5031475;28;20132;-86
2020/12/03 07:55:21;;;;;;;2.83;1.30;;;;;;;7.75;77.07;98304.88;5031309;28;20033;-85
2020/12/03 07:57:51;;;;;;;6.55;1.10;;;;;;;7.81;77.05;98295.66;5031125;28;20041;-86
2020/12/03 09:30:48;;;;;;;3.75;0.75;;;;;;;7.99;75.93;97982.19;5699302;23;20049;-86
2020/12/03 09:33:17;;;;;;;3.42;0.90;;;;;;;8.02;75.86;97976.69;5023877;28;20022;-85
2020/12/03 09:35:45;;;;;;;1.67;0.68;;;;;;;7.98;76.13;97973.53;5015209;28;20489;-84
2020/12/03 09:38:13;;;;;;;4.43;0.88;;;;;;;7.93;76.17;97953.06;5014037;28;20468;-85
2020/12/03 09:40:44;;;;;;;0.98;0.77;;;;;;;7.75;76.35;97944.38;4997354;28;20029;-85
2020/12/03 09:43:09;;;;;;;1.55;0.63;;;;;;;7.75;77.17;97934.75;5012738;28;20026;-84
2020/12/03 09:45:41;;;;;;;1.50;0.70;;;;;;;7.82;77.28;97928.94;5014354;28;20030;-85
2020/12/03 09:48:12;;;;;;;2.50;0.77;;;;;;;7.89;77.31;97915.13;5014304;28;20109;-86
2020/12/03 09:50:41;;;;;;;2.07;0.60;;;;;;;7.85;76.88;97907.75;5014933;28;20034;-85
2020/12/03 09:53:15;;;;;;;3.47;0.68;;;;;;;7.87;76.42;97896.19;5014109;28;20025;-85
2020/12/03 09:55:40;;;;;;;3.20;0.47;;;;;;;8.06;76.19;97894.41;5014767;28;20018;-85
2020/12/03 09:58:06;;;;;;;1.83;0.73;;;;;;;8.10;75.81;97880.06;5013151;28;20032;-85
2020/12/03 10:00:38;;;;;;;2.05;0.75;;;;;;;7.92;76.81;97873.03;5013814;28;20087;-85
2020/12/03 10:03:23;;;;;;;3.83;1.10;;;;;;;7.77;77.22;97869.31;4999801;28;20113;-85
2020/12/03 10:06:07;;;;;;;2.25;0.95;;;;;;;7.89;76.86;97868.09;4998295;28;20068;-85
2020/12/03 10:08:55;;;;;;;3.05;1.05;;;;;;;8.06;76.64;97855.22;4996440;28;20419;-85
2020/12/03 10:11:46;;;;;;;2.38;0.93;;;;;;;7.99;76.25;97841.09;5001027;28;20403;-85
2020/12/03 10:14:53;;;;;;;1.50;0.70;;;;;;;8.12;76.14;97828.47;5012223;28;20034;-84
2020/12/03 10:17:22;;;;;;;2.28;0.88;;;;;;;8.10;76.49;97812.94;4999775;28;20069;-84
2020/12/03 10:19:49;;;;;;;1.65;0.70;;;;;;;8.05;77.02;97809.13;5013596;28;20476;-84
2020/12/03 10:22:42;;;;;;;3.90;0.82;;;;;;;8.04;77.11;97799.66;5014403;28;20026;-84
2020/12/03 10:25:17;;;;;;;1.23;0.60;;;;;;;8.07;76.95;97786.28;4998293;28;20025;-85
2020/12/03 10:28:15;;;;;;;1.75;0.77;;;;;;;7.89;76.77;97773.25;5005848;28;20025;-84
2020/12/03 10:30:42;;;;;;;7.80;0.80;;;;;;;8.01;77.16;97755.53;5013605;28;20065;-84
2020/12/03 10:33:15;;;;;;;1.30;0.75;;;;;;;7.89;77.15;97747.94;5012729;28;20470;-83
2020/12/03 10:35:45;;;;;;;2.80;0.60;;;;;;;7.98;77.36;97746.22;5013382;28;20021;-84
2020/12/03 10:38:19;;;;;;;2.17;0.45;;;;;;;8.09;76.49;97732.88;5011600;28;20109;-83
2020/12/03 10:40:45;;;;;;;0.55;0.40;;;;;;;8.17;76.40;97724.25;5012691;28;20030;-85
2020/12/03 10:43:18;;;;;;;0.40;0.40;;;;;;;8.20;76.46;97708.28;5012679;28;20022;-84
2020/12/03 10:45:47;;;;;;;2.42;0.60;;;;;;;8.16;76.16;97701.72;5012463;28;20101;-85
2020/12/03 10:48:27;;;;;;;1.25;0.60;;;;;;;8.15;76.21;97694.84;5013630;28;20045;-85
2020/12/03 10:50:54;;;;;;;0.90;0.40;;;;;;;8.28;76.59;97689.22;5013902;28;20029;-84
2020/12/03 10:53:30;;;;;;;3.78;0.80;;;;;;;8.09;77.47;97683.22;5013242;28;20052;-84
2020/12/03 10:56:06;;;;;;;1.20;0.70;;;;;;;8.26;77.15;97681.50;5013202;28;20479;-84
2020/12/03 10:59:08;;;;;;;2.65;0.77;;;;;;;8.27;76.90;97670.09;5013068;28;20395;-84
2020/12/03 11:01:32;;;;;;;1.58;0.60;;;;;;;8.38;76.15;97642.03;5011768;28;20034;-84
2020/12/03 11:04:04;;;;;;;3.05;0.90;;;;;;;8.37;75.71;97638.56;5013690;28;20033;-84
2020/12/03 11:06:30;;;;;;;0.73;0.50;;;;;;;8.43;75.94;97629.31;5013578;28;20036;-84
2020/12/03 11:08:56;;;;;;;1.40;0.80;;;;;;;8.43;75.66;97624.94;5012369;28;20033;-83
2020/12/03 11:11:22;;;;;;;1.65;0.98;;;;;;;8.41;76.02;97620.78;5017422;28;20105;-84
2020/12/03 11:13:49;;;;;;;1.23;0.68;;;;;;;8.39;75.98;97614.88;5013602;28;20030;-83
2020/12/03 11:16:24;;;;;;;2.53;0.90;;;;;;;8.39;76.50;97599.19;5012043;28;20037;-83
2020/12/03 11:18:50;;;;;;;0.93;0.63;;;;;;;8.42;76.40;97593.69;5012970;28;20033;-84
2020/12/03 11:21:22;;;;;;;1.67;0.93;;;;;;;8.47;76.18;97588.78;5012311;28;20025;-84
2020/12/03 11:24:03;;;;;;;2.65;0.90;;;;;;;8.44;76.75;97569.03;5012758;28;20032;-83
2020/12/03 11:26:32;;;;;;;3.10;0.60;;;;;;;8.47;75.28;97552.19;5027634;28;20487;-85
2020/12/03 11:29:09;;;;;;;2.63;0.63;;;;;;;8.51;75.67;97551.72;5012232;28;20025;-83
2020/12/03 11:31:35;;;;;;;2.05;0.80;;;;;;;8.31;75.99;97538.09;5013135;28;20030;-82
2020/12/03 11:34:00;;;;;;;2.80;0.50;;;;;;;8.24;75.60;97525.81;5012587;28;20030;-82
2020/12/03 11:36:35;;;;;;;1.17;0.57;;;;;;;8.37;76.87;97514.88;5001394;28;20034;-83
2020/12/03 11:39:02;;;;;;;1.38;0.65;;;;;;;8.49;76.97;97501.38;5012229;28;20029;-84
2020/12/03 11:48:58;;;;;;;2.53;0.70;;;;;;;8.30;76.76;97475.50;5028291;28;20034;-83
2020/12/03 11:51:36;;;;;;;2.15;0.93;;;;;;;8.41;77.22;97469.13;5033634;28;20065;-83
2020/12/03 11:54:04;;;;;;;1.90;0.70;;;;;;;8.54;76.68;97449.38;5033845;28;20025;-83
2020/12/03 11:56:30;;;;;;;0.82;0.50;;;;;;;8.45;76.56;97449.56;5024618;28;20500;-84
2020/12/03 11:59:15;;;;;;;1.73;0.60;;;;;;;8.61;76.16;97439.09;5012274;28;20065;-83
2020/12/03 12:01:53;;;;;;;2.25;1.08;;;;;;;8.50;75.63;97428.97;5013017;28;20069;-83
2020/12/03 12:04:20;;;;;;;3.05;0.82;;;;;;;8.60;76.59;97424.38;5004552;28;20145;-83
2020/12/03 12:07:09;;;;;;;0.80;0.70;;;;;;;8.68;76.48;97407.88;5009201;28;20065;-83
2020/12/03 12:10:07;;;;;;;0.77;0.77;;;;;;;8.69;76.75;97396.44;5018142;28;20061;-83
2020/12/03 12:12:22;;;;;;;1.08;0.65;;;;;;;8.62;75.93;97383.19;5017695;28;20500;-83
2020/12/03 12:14:48;;;;;;;1.60;0.82;;;;;;;8.66;75.53;97367.97;5012528;28;20549;-83
2020/12/03 12:17:17;;;;;;;2.75;0.80;;;;;;;8.66;76.09;97358.34;5012512;28;20109;-85
2020/12/03 12:19:43;;;;;;;0.93;0.60;;;;;;;8.73;75.40;97361.13;5012166;28;20085;-84
2020/12/03 12:22:11;;;;;;;1.83;0.38;;;;;;;8.72;75.49;97347.19;5020559;28;20092;-84
2020/12/03 12:24:43;;;;;;;1.33;0.52;;;;;;;8.75;76.14;97340.84;5021315;28;20076;-83
2020/12/03 12:27:09;;;;;;;5.28;1.90;;;;;;;8.86;76.00;97335.22;5016867;28;20065;-84
2020/12/03 12:29:34;;;;;;;0.77;0.60;;;;;;;8.87;75.80;97328.22;5017064;28;20080;-84
2020/12/03 12:32:01;;;;;;;1.38;0.90;;;;;;;8.91;76.17;97325.06;5044771;22;20540;-84
2020/12/03 12:34:27;;;;;;;1.65;0.73;;;;;;;8.98;75.82;97319.97;5034646;28;20048;-84
2020/12/03 12:36:53;;;;;;;1.17;0.65;;;;;;;9.03;74.95;97311.63;5034494;28;20387;-84
2020/12/03 12:39:19;;;;;;;3.25;1.13;;;;;;;8.87;75.40;97302.03;5034924;28;20029;-86
2020/12/03 12:42:01;;;;;;;0.88;0.50;;;;;;;8.98;75.75;97290.38;5035120;28;20033;-84
2020/12/03 12:44:26;;;;;;;;;;;;;;;9.02;75.98;97274.16;5035108;28;20403;-84
2020/12/03 12:46:59;;;;;;;1.80;0.80;;;;;;;9.12;76.50;97271.31;5034245;28;20004;-84
2020/12/03 12:49:25;;;;;;;0.52;0.50;;;;;;;9.28;75.12;97260.78;5032186;28;20032;-84
2020/12/03 12:51:51;;;;;;;2.63;0.80;;;;;;;9.20;74.84;97254.75;5034595;28;20076;-81
2020/12/03 12:54:18;;;;;;;0.80;0.77;;;;;;;9.13;75.54;97245.00;5017129;28;20116;-81
2020/12/03 12:56:47;;;;;;;0.70;0.60;;;;;;;9.09;74.87;97229.81;5030654;28;20122;-83
2020/12/03 12:59:14;;;;;;;0.70;0.40;;;;;;;9.23;74.64;97229.06;5034110;28;20091;-84
2020/12/03 13:01:50;;;;;;;1.25;0.57;;;;;;;9.26;73.46;97220.03;5049163;28;20044;-84
2020/12/03 13:04:17;;;;;;;3.78;0.68;;;;;;;9.36;74.04;97207.56;5033472;28;20495;-84
2020/12/03 13:06:43;;;;;;;0.55;0.50;;;;;;;9.26;74.34;97202.53;5033816;28;20387;-84
2020/12/03 13:09:09;;;;;;;1.02;0.60;;;;;;;9.32;74.69;97195.78;5034030;28;20033;-84
2020/12/03 13:11:36;;;;;;;1.05;0.60;;;;;;;9.31;74.86;97194.16;5035711;28;20459;-84
2020/12/03 13:14:05;;;;;;;1.25;0.77;;;;;;;9.31;74.77;97183.69;5015969;28;20030;-84
2020/12/03 13:16:30;;;;;;;3.72;0.80;;;;;;;9.12;75.29;97164.84;5034063;28;20117;-84
2020/12/03 13:18:56;;;;;;;2.55;0.90;;;;;;;9.21;74.40;97167.41;5016023;28;20112;-83
2020/12/03 13:21:23;;;;;;;1.88;0.90;;;;;;;8.73;76.60;97160.50;5033870;28;20078;-83
2020/12/03 13:23:48;;;;;;;1.17;0.70;;;;;;;8.89;76.42;97154.38;5041102;28;20041;-83
2020/12/03 13:26:16;;;;;;;0.95;0.43;;;;;;;9.00;75.59;97153.13;5039928;28;20051;-83
2020/12/03 13:28:42;;;;;;;1.27;0.40;;;;;;;8.98;74.53;97152.50;5018537;28;20033;-84
2020/12/03 13:31:07;;;;;;;0.70;0.55;;;;;;;8.95;75.59;97142.41;5046373;22;20033;-84
2020/12/03 13:33:32;;;;;;;1.52;0.60;;;;;;;8.98;74.71;97131.56;5038078;28;20380;-84
2020/12/03 13:35:58;;;;;;;1.02;0.60;;;;;;;9.04;75.33;97125.63;5030970;28;20067;-85
2020/12/03 13:38:23;;;;;;;0.60;0.43;;;;;;;9.01;75.02;97128.59;5032343;28;20029;-82
2020/12/03 13:40:49;;;;;;;0.55;0.47;;;;;;;9.04;74.99;97123.00;5031171;28;20109;-83